Time;durP1;ratioP1;P1;durP2;ratioP2;P2;SDS_P1;SDS_P2;PMS_P1;PMS_P2;Temp;Humidity;BMP_temperature;BMP_pressure;BME280_temperature;BME280_humidity;BME280_pressure;Samples;Min_cycle;Max_cycle;Signal;HPM_P1;HPM_P2
2023/07/29 00:01:21;;;;;;;4.90;1.30;;;;;;;;;;5050020;28;20429;-72
2023/07/29 00:03:46;;;;;;;5.32;1.67;;;;;;;;;;5049007;28;20043;-72
2023/07/29 00:06:11;;;;;;;1.70;1.40;;;;;;;;;;5048975;28;20029;-72
2023/07/29 00:08:36;;;;;;;2.42;1.30;;;;;;;;;;5049890;28;20247;-72
2023/07/29 00:11:02;;;;;;;2.37;1.47;;;;;;;;;;5049449;28;20052;-72
2023/07/29 00:13:27;;;;;;;1.67;1.05;;;;;;;;;;5047607;28;20017;-72
2023/07/29 00:15:53;;;;;;;4.70;1.48;;;;;;;;;;5049221;28;20033;-72
2023/07/29 00:18:19;;;;;;;2.70;1.40;;;;;;;;;;5048510;28;20029;-72
2023/07/29 00:20:44;;;;;;;3.72;1.38;;;;;;;;;;5048888;28;20079;-72
2023/07/29 00:23:09;;;;;;;6.80;1.43;;;;;;;;;;5049015;28;20021;-72
2023/07/29 00:25:35;;;;;;;1.20;1.10;;;;;;;;;;5047605;28;20283;-72
2023/07/29 00:28:00;;;;;;;1.58;1.30;;;;;;;;;;5048837;28;20378;-72
2023/07/29 00:30:25;;;;;;;4.63;1.37;;;;;;;;;;5048840;28;20103;-72
2023/07/29 00:32:50;;;;;;;2.17;0.97;;;;;;;;;;5049942;28;20338;-72
2023/07/29 00:35:16;;;;;;;1.50;1.27;;;;;;;;;;5046097;28;20354;-72
2023/07/29 00:37:41;;;;;;;3.23;1.10;;;;;;;;;;5045509;28;20858;-72
2023/07/29 00:40:18;;;;;;;1.57;1.13;;;;;;;;;;5047111;28;20280;-72
2023/07/29 00:42:44;;;;;;;2.05;1.33;;;;;;;;;;5048231;28;20268;-71
2023/07/29 00:45:09;;;;;;;6.88;1.48;;;;;;;;;;5049863;28;20477;-71
2023/07/29 00:47:34;;;;;;;2.33;1.60;;;;;;;;;;5049361;28;20024;-71
2023/07/29 00:50:00;;;;;;;2.90;1.37;;;;;;;;;;5048785;28;20070;-71
2023/07/29 00:52:25;;;;;;;1.88;1.40;;;;;;;;;;5048678;28;20271;-72
2023/07/29 00:54:50;;;;;;;2.58;1.35;;;;;;;;;;5045985;28;20017;-71
2023/07/29 00:57:16;;;;;;;4.22;1.45;;;;;;;;;;5047753;28;20037;-71
2023/07/29 00:59:41;;;;;;;2.42;1.05;;;;;;;;;;5048212;28;20036;-72
2023/07/29 01:02:07;;;;;;;4.53;1.60;;;;;;;;;;5048541;28;20494;-71
2023/07/29 01:04:32;;;;;;;1.92;1.40;;;;;;;;;;5046452;28;20040;-71
2023/07/29 01:07:03;;;;;;;1.80;1.30;;;;;;;;;;5045871;28;20028;-71
2023/07/29 01:09:43;;;;;;;1.85;1.33;;;;;;;;;;5048626;28;20240;-72
2023/07/29 01:12:12;;;;;;;3.15;1.83;;;;;;;;;;5049254;28;20380;-72
2023/07/29 01:14:51;;;;;;;1.75;1.45;;;;;;;;;;5046502;28;20052;-72
2023/07/29 01:17:22;;;;;;;3.70;1.63;;;;;;;;;;5047085;28;20063;-72
2023/07/29 01:19:50;;;;;;;2.13;1.65;;;;;;;;;;5046835;28;20013;-72
2023/07/29 01:22:16;;;;;;;1.90;1.40;;;;;;;;;;5048646;28;20025;-72
2023/07/29 01:24:42;;;;;;;2.72;1.77;;;;;;;;;;5048406;28;20235;-72
2023/07/29 01:27:07;;;;;;;3.25;1.88;;;;;;;;;;5048942;28;20112;-72
2023/07/29 01:29:32;;;;;;;2.53;1.67;;;;;;;;;;5052221;28;20070;-72
2023/07/29 01:32:01;;;;;;;2.53;1.50;;;;;;;;;;5050920;28;20317;-71
2023/07/29 01:34:29;;;;;;;2.78;1.90;;;;;;;;;;5048625;28;20017;-71
2023/07/29 01:36:57;;;;;;;7.22;1.88;;;;;;;;;;5045494;28;20029;-71
2023/07/29 01:39:23;;;;;;;2.88;1.63;;;;;;;;;;5052455;28;20017;-71
2023/07/29 01:41:48;;;;;;;4.97;1.88;;;;;;;;;;5052294;28;20111;-71
2023/07/29 01:44:13;;;;;;;5.35;1.50;;;;;;;;;;5049256;28;20108;-71
2023/07/29 01:46:39;;;;;;;4.07;1.75;;;;;;;;;;5050477;28;20477;-71
2023/07/29 01:49:04;;;;;;;1.73;1.40;;;;;;;;;;5052745;28;20432;-71
2023/07/29 01:51:29;;;;;;;2.40;1.73;;;;;;;;;;5052806;28;20363;-71
2023/07/29 01:53:55;;;;;;;2.65;1.58;;;;;;;;;;5051633;28;20017;-71
2023/07/29 01:56:20;;;;;;;2.67;1.80;;;;;;;;;;5050910;28;20424;-71
2023/07/29 01:58:45;;;;;;;4.53;2.10;;;;;;;;;;5048850;28;20170;-71
2023/07/29 02:01:11;;;;;;;4.43;1.77;;;;;;;;;;5051262;28;20048;-71
2023/07/29 02:03:36;;;;;;;2.95;2.00;;;;;;;;;;5051066;28;20017;-71
2023/07/29 02:06:01;;;;;;;3.13;2.33;;;;;;;;;;5050802;28;20159;-71
2023/07/29 02:08:26;;;;;;;3.50;1.97;;;;;;;;;;5052176;28;20017;-71
2023/07/29 02:10:51;;;;;;;4.07;1.93;;;;;;;;;;5052180;28;20766;-71
2023/07/29 02:13:17;;;;;;;4.17;1.50;;;;;;;;;;5048455;28;20755;-71
2023/07/29 02:15:42;;;;;;;3.78;2.28;;;;;;;;;;5049619;28;20294;-71
2023/07/29 02:18:07;;;;;;;5.35;1.98;;;;;;;;;;5050990;28;20017;-71
2023/07/29 02:20:32;;;;;;;3.90;2.10;;;;;;;;;;5050651;28;20473;-71
2023/07/29 02:22:57;;;;;;;3.63;1.98;;;;;;;;;;5051402;28;20078;-72
2023/07/29 02:25:23;;;;;;;4.40;2.10;;;;;;;;;;5051052;28;20037;-71
2023/07/29 02:27:48;;;;;;;2.13;1.45;;;;;;;;;;5048211;28;20496;-72
2023/07/29 02:30:13;;;;;;;5.23;2.20;;;;;;;;;;5050040;28;20505;-72
2023/07/29 02:32:38;;;;;;;3.77;2.20;;;;;;;;;;5051224;28;20019;-72
2023/07/29 02:35:04;;;;;;;6.57;2.20;;;;;;;;;;5032489;28;20270;-72
2023/07/29 02:37:29;;;;;;;4.05;2.05;;;;;;;;;;5048707;28;20350;-72
2023/07/29 02:39:55;;;;;;;4.00;2.53;;;;;;;;;;5049129;28;20103;-72
2023/07/29 02:42:20;;;;;;;2.90;2.10;;;;;;;;;;5049623;28;20342;-72
2023/07/29 02:44:45;;;;;;;4.30;2.27;;;;;;;;;;5051106;28;20473;-71
2023/07/29 02:47:10;;;;;;;3.03;2.00;;;;;;;;;;5049298;28;20291;-72
2023/07/29 02:49:35;;;;;;;5.93;2.40;;;;;;;;;;5049815;28;20088;-72
2023/07/29 02:52:00;;;;;;;10.33;2.20;;;;;;;;;;5047379;28;20821;-72
2023/07/29 02:54:26;;;;;;;7.32;2.70;;;;;;;;;;5049546;28;20017;-72
2023/07/29 02:56:51;;;;;;;3.97;2.43;;;;;;;;;;5048877;28;20024;-72
2023/07/29 02:59:16;;;;;;;3.17;2.33;;;;;;;;;;5049373;28;20024;-72
2023/07/29 03:01:42;;;;;;;5.40;2.42;;;;;;;;;;5051214;28;20456;-72
2023/07/29 03:04:07;;;;;;;9.02;2.63;;;;;;;;;;5049171;28;20020;-72
2023/07/29 03:06:33;;;;;;;3.83;2.38;;;;;;;;;;5048602;28;20159;-71
2023/07/29 03:08:58;;;;;;;6.83;2.80;;;;;;;;;;5048797;28;20066;-71
2023/07/29 03:11:23;;;;;;;11.90;3.57;;;;;;;;;;5050609;28;20790;-71
2023/07/29 03:13:48;;;;;;;5.37;3.00;;;;;;;;;;5050890;28;20021;-71
2023/07/29 03:16:14;;;;;;;9.70;2.37;;;;;;;;;;5048662;28;20352;-72
2023/07/29 03:18:40;;;;;;;6.80;2.70;;;;;;;;;;5048313;28;20758;-72
2023/07/29 03:21:05;;;;;;;5.80;2.90;;;;;;;;;;5048682;28;20037;-72
2023/07/29 03:23:30;;;;;;;10.25;3.33;;;;;;;;;;5050370;28;20024;-72
2023/07/29 03:25:57;;;;;;;4.00;2.63;;;;;;;;;;5050106;28;20032;-72
2023/07/29 03:28:23;;;;;;;9.02;2.90;;;;;;;;;;5049863;28;20096;-71
2023/07/29 03:30:49;;;;;;;6.70;3.35;;;;;;;;;;5045603;28;20498;-71
2023/07/29 03:33:14;;;;;;;6.50;3.17;;;;;;;;;;5047312;28;20213;-72
2023/07/29 03:35:39;;;;;;;5.93;3.20;;;;;;;;;;5045353;28;20430;-72
2023/07/29 03:38:04;;;;;;;8.93;2.97;;;;;;;;;;5044236;28;20310;-71
2023/07/29 03:40:29;;;;;;;4.37;2.70;;;;;;;;;;5047336;28;20279;-72
2023/07/29 03:42:55;;;;;;;6.03;2.77;;;;;;;;;;5050109;28;20267;-71
2023/07/29 03:45:20;;;;;;;6.40;3.03;;;;;;;;;;5049007;28;20489;-72
2023/07/29 03:47:45;;;;;;;5.23;2.57;;;;;;;;;;5048272;28;20017;-72
2023/07/29 03:50:10;;;;;;;13.53;3.00;;;;;;;;;;5049867;28;20685;-72
2023/07/29 03:52:35;;;;;;;8.20;2.43;;;;;;;;;;5049353;28;20605;-71
2023/07/29 03:55:00;;;;;;;5.78;2.53;;;;;;;;;;5048926;28;21154;-72
2023/07/29 03:57:26;;;;;;;8.10;2.20;;;;;;;;;;5048285;28;20418;-72
2023/07/29 03:59:51;;;;;;;4.10;2.22;;;;;;;;;;5047208;28;20301;-72
2023/07/29 04:02:16;;;;;;;2.43;1.93;;;;;;;;;;5045794;28;20028;-73
2023/07/29 04:04:44;;;;;;;7.65;2.47;;;;;;;;;;5047913;28;20772;-70
2023/07/29 04:07:09;;;;;;;6.90;2.72;;;;;;;;;;5030947;28;20075;-72
2023/07/29 04:09:34;;;;;;;4.95;2.40;;;;;;;;;;5049490;28;20111;-71
2023/07/29 04:11:59;;;;;;;4.57;2.75;;;;;;;;;;5046489;28;20092;-72
2023/07/29 04:14:25;;;;;;;3.40;2.07;;;;;;;;;;5046105;28;20024;-72
2023/07/29 04:16:50;;;;;;;4.50;2.60;;;;;;;;;;5045539;28;20271;-72
2023/07/29 04:19:15;;;;;;;7.22;2.42;;;;;;;;;;5047734;28;20259;-72
2023/07/29 04:21:40;;;;;;;4.50;2.40;;;;;;;;;;5047948;28;20041;-72
2023/07/29 04:24:05;;;;;;;3.90;2.00;;;;;;;;;;5046013;28;20047;-72
2023/07/29 04:26:30;;;;;;;5.45;2.90;;;;;;;;;;5045694;28;20428;-71
2023/07/29 04:28:56;;;;;;;5.97;2.83;;;;;;;;;;5049270;28;20021;-72
2023/07/29 04:31:21;;;;;;;6.75;2.40;;;;;;;;;;5052311;28;20270;-71
2023/07/29 04:33:46;;;;;;;10.00;2.58;;;;;;;;;;5045178;28;20014;-71
2023/07/29 04:36:11;;;;;;;5.33;2.87;;;;;;;;;;5047180;28;20029;-72
2023/07/29 04:38:37;;;;;;;8.47;2.70;;;;;;;;;;5045721;28;20679;-72
2023/07/29 04:41:02;;;;;;;3.97;2.50;;;;;;;;;;5047128;28;20292;-72
2023/07/29 04:43:28;;;;;;;9.40;2.60;;;;;;;;;;5048439;28;20045;-71
2023/07/29 04:45:53;;;;;;;8.63;2.35;;;;;;;;;;5047463;28;20033;-72
2023/07/29 04:48:18;;;;;;;7.35;2.65;;;;;;;;;;5047086;28;20074;-72
2023/07/29 04:50:43;;;;;;;7.93;3.47;;;;;;;;;;5047261;28;20373;-72
2023/07/29 04:53:08;;;;;;;5.30;2.97;;;;;;;;;;5048597;28;20025;-72
2023/07/29 04:55:34;;;;;;;6.37;3.50;;;;;;;;;;5048301;28;20267;-71
2023/07/29 04:58:00;;;;;;;6.27;3.50;;;;;;;;;;5045426;28;20613;-71
2023/07/29 05:00:25;;;;;;;8.60;3.70;;;;;;;;;;5047461;28;20390;-71
2023/07/29 05:02:51;;;;;;;5.70;3.77;;;;;;;;;;5052269;28;20385;-71
2023/07/29 05:05:16;;;;;;;7.95;4.32;;;;;;;;;;5052263;28;20286;-71
2023/07/29 05:07:41;;;;;;;11.02;4.90;;;;;;;;;;5050589;28;20021;-72
2023/07/29 05:10:07;;;;;;;15.23;4.90;;;;;;;;;;5050262;28;20017;-72
2023/07/29 05:12:32;;;;;;;15.32;5.20;;;;;;;;;;5046534;28;20423;-72
2023/07/29 05:14:57;;;;;;;6.13;3.95;;;;;;;;;;5053374;28;20017;-71
2023/07/29 05:17:23;;;;;;;14.18;5.93;;;;;;;;;;5050807;28;20044;-71
2023/07/29 05:19:48;;;;;;;12.97;5.87;;;;;;;;;;5051485;28;20021;-72
2023/07/29 05:22:13;;;;;;;13.35;6.00;;;;;;;;;;5052353;28;20111;-72
2023/07/29 05:24:38;;;;;;;10.83;5.47;;;;;;;;;;5050607;28;20049;-71
2023/07/29 05:27:03;;;;;;;10.53;6.70;;;;;;;;;;5050739;28;20429;-72
2023/07/29 05:29:29;;;;;;;12.25;6.20;;;;;;;;;;5051030;28;20343;-71
2023/07/29 05:31:54;;;;;;;12.27;5.63;;;;;;;;;;5048998;28;20017;-71
2023/07/29 05:34:19;;;;;;;9.70;5.23;;;;;;;;;;5052400;28;20473;-72
2023/07/29 05:36:44;;;;;;;9.47;4.47;;;;;;;;;;5049137;28;20037;-72
2023/07/29 05:39:09;;;;;;;15.17;4.97;;;;;;;;;;5049320;28;20401;-72
2023/07/29 05:41:35;;;;;;;10.68;6.18;;;;;;;;;;5049649;28;20333;-72
2023/07/29 05:44:00;;;;;;;22.97;9.90;;;;;;;;;;5049150;28;20028;-72
2023/07/29 05:46:26;;;;;;;21.20;10.20;;;;;;;;;;5050973;28;20722;-72
2023/07/29 05:48:51;;;;;;;19.05;8.48;;;;;;;;;;5049952;28;20442;-72
2023/07/29 05:51:17;;;;;;;10.10;6.03;;;;;;;;;;5048826;28;20079;-72
2023/07/29 05:53:42;;;;;;;7.63;4.47;;;;;;;;;;5043716;28;20107;-72
2023/07/29 05:56:07;;;;;;;6.05;4.10;;;;;;;;;;5050123;28;20386;-72
2023/07/29 05:58:32;;;;;;;9.25;4.13;;;;;;;;;;5047945;28;20417;-72
2023/07/29 06:00:58;;;;;;;9.60;4.20;;;;;;;;;;5049647;28;20023;-72
2023/07/29 06:03:23;;;;;;;9.32;4.70;;;;;;;;;;5051314;28;20029;-72
2023/07/29 06:05:49;;;;;;;12.90;4.93;;;;;;;;;;5048379;28;20112;-72
2023/07/29 06:08:14;;;;;;;8.57;3.88;;;;;;;;;;5049302;28;20024;-72
2023/07/29 06:10:39;;;;;;;8.77;4.50;;;;;;;;;;5047365;28;20014;-71
2023/07/29 06:13:05;;;;;;;9.77;5.05;;;;;;;;;;5047681;28;20321;-71
2023/07/29 06:15:31;;;;;;;12.52;6.10;;;;;;;;;;5047749;28;20515;-72
2023/07/29 06:17:56;;;;;;;10.43;6.20;;;;;;;;;;5051757;28;20048;-71
2023/07/29 06:20:21;;;;;;;14.33;6.90;;;;;;;;;;5047722;28;20017;-72
2023/07/29 06:22:46;;;;;;;12.43;7.93;;;;;;;;;;5041894;28;20045;-72
2023/07/29 06:25:11;;;;;;;11.63;5.73;;;;;;;;;;5045384;28;20366;-72
2023/07/29 06:27:36;;;;;;;13.07;7.90;;;;;;;;;;5045453;28;20337;-72
2023/07/29 06:30:02;;;;;;;11.95;3.83;;;;;;;;;;5046268;28;20033;-72
2023/07/29 06:32:27;;;;;;;8.35;3.65;;;;;;;;;;5043652;28;20025;-71
2023/07/29 06:34:54;;;;;;;6.27;2.70;;;;;;;;;;5048393;28;20029;-72
2023/07/29 06:37:19;;;;;;;5.15;2.63;;;;;;;;;;5047367;28;20135;-72
2023/07/29 06:39:44;;;;;;;6.75;2.38;;;;;;;;;;5048769;28;20044;-72
2023/07/29 06:42:09;;;;;;;6.28;2.00;;;;;;;;;;5041087;28;20024;-72
2023/07/29 06:44:35;;;;;;;4.37;2.53;;;;;;;;;;5041991;28;20043;-71
2023/07/29 06:47:00;;;;;;;8.27;1.83;;;;;;;;;;5043626;28;20029;-71
2023/07/29 06:49:25;;;;;;;6.83;2.17;;;;;;;;;;5048251;28;20039;-71
2023/07/29 06:51:50;;;;;;;5.80;1.70;;;;;;;;;;5046255;28;20041;-71
2023/07/29 06:54:16;;;;;;;11.30;3.40;;;;;;;;;;5049226;28;20267;-71
2023/07/29 06:56:41;;;;;;;5.60;2.50;;;;;;;;;;5044570;28;20033;-71
2023/07/29 06:59:07;;;;;;;5.63;2.80;;;;;;;;;;5043629;28;20040;-71
2023/07/29 07:01:32;;;;;;;9.40;2.30;;;;;;;;;;5042966;28;20051;-71
2023/07/29 07:03:58;;;;;;;2.87;1.70;;;;;;;;;;5051079;28;20029;-71
2023/07/29 07:06:24;;;;;;;6.22;2.10;;;;;;;;;;5050058;28;20374;-71
2023/07/29 07:08:49;;;;;;;4.45;2.30;;;;;;;;;;5050592;28;20031;-71
2023/07/29 07:11:14;;;;;;;3.47;2.00;;;;;;;;;;5048252;28;20439;-71
2023/07/29 07:13:40;;;;;;;4.27;2.17;;;;;;;;;;5050329;28;20474;-71
2023/07/29 07:16:05;;;;;;;5.83;2.00;;;;;;;;;;5050406;28;20052;-71
2023/07/29 07:18:30;;;;;;;6.40;2.10;;;;;;;;;;5049850;28;20024;-71
2023/07/29 07:20:55;;;;;;;4.13;1.90;;;;;;;;;;5046686;28;20091;-71
2023/07/29 07:23:20;;;;;;;2.55;1.35;;;;;;;;;;5049791;28;20263;-71
2023/07/29 07:25:46;;;;;;;3.23;1.63;;;;;;;;;;5048335;28;20078;-71
2023/07/29 07:28:11;;;;;;;3.97;1.70;;;;;;;;;;5049977;28;20325;-71
2023/07/29 07:30:40;;;;;;;4.77;2.03;;;;;;;;;;5048787;28;20031;-71
2023/07/29 07:33:05;;;;;;;3.60;1.40;;;;;;;;;;5042647;28;20238;-71
2023/07/29 07:35:30;;;;;;;4.13;1.77;;;;;;;;;;5046706;28;20031;-71
2023/07/29 07:37:55;;;;;;;5.83;2.80;;;;;;;;;;5044598;28;20560;-71
2023/07/29 07:40:20;;;;;;;2.97;1.50;;;;;;;;;;5043137;28;20329;-71
2023/07/29 07:42:46;;;;;;;5.33;2.00;;;;;;;;;;5044258;28;20712;-71
2023/07/29 07:45:11;;;;;;;2.83;1.38;;;;;;;;;;5046262;28;20052;-71
2023/07/29 07:47:36;;;;;;;4.78;1.58;;;;;;;;;;5046964;28;20390;-71
2023/07/29 07:50:01;;;;;;;4.30;1.57;;;;;;;;;;5048268;28;20382;-71
2023/07/29 07:52:27;;;;;;;4.40;2.03;;;;;;;;;;5047413;28;20052;-71
2023/07/29 07:54:53;;;;;;;4.68;1.30;;;;;;;;;;5046198;28;20413;-71
2023/07/29 07:57:19;;;;;;;5.07;2.13;;;;;;;;;;5048700;28;20032;-72
2023/07/29 07:59:44;;;;;;;5.60;1.60;;;;;;;;;;5042741;28;20044;-71
2023/07/29 08:02:10;;;;;;;6.93;2.23;;;;;;;;;;5047391;28;20025;-71
2023/07/29 08:04:35;;;;;;;9.90;2.17;;;;;;;;;;5046342;28;20035;-71
2023/07/29 08:07:00;;;;;;;6.23;1.83;;;;;;;;;;5049226;28;20032;-71
2023/07/29 08:09:25;;;;;;;7.63;1.93;;;;;;;;;;5047919;28;20037;-71
2023/07/29 08:11:51;;;;;;;4.15;1.45;;;;;;;;;;5045179;28;20111;-71
2023/07/29 08:14:16;;;;;;;5.17;1.60;;;;;;;;;;5045429;28;20029;-71
2023/07/29 08:16:41;;;;;;;3.90;1.70;;;;;;;;;;5047070;28;20087;-71
2023/07/29 08:19:09;;;;;;;2.23;1.23;;;;;;;;;;5048917;28;20124;-71
2023/07/29 08:21:34;;;;;;;3.75;1.42;;;;;;;;;;5048768;28;20021;-70
2023/07/29 08:23:59;;;;;;;3.30;1.40;;;;;;;;;;5047708;28;20017;-70
2023/07/29 08:26:25;;;;;;;2.35;1.20;;;;;;;;;;5046747;28;20033;-71
2023/07/29 08:28:50;;;;;;;2.05;1.30;;;;;;;;;;5048288;28;20025;-71
2023/07/29 08:31:15;;;;;;;4.00;1.40;;;;;;;;;;5050105;28;20477;-70
2023/07/29 08:33:40;;;;;;;1.47;0.80;;;;;;;;;;5049837;28;20564;-70
2023/07/29 08:36:05;;;;;;;5.00;2.07;;;;;;;;;;5054028;28;20032;-70
2023/07/29 08:38:31;;;;;;;2.30;1.05;;;;;;;;;;5053938;28;20250;-70
2023/07/29 08:40:59;;;;;;;4.13;1.30;;;;;;;;;;5053546;28;20682;-70
2023/07/29 08:43:28;;;;;;;2.10;1.10;;;;;;;;;;5052515;28;20059;-70
2023/07/29 08:45:54;;;;;;;3.25;1.30;;;;;;;;;;5052898;28;20116;-70
2023/07/29 08:48:23;;;;;;;5.60;1.90;;;;;;;;;;5035594;28;20186;-70
2023/07/29 08:50:48;;;;;;;4.90;1.33;;;;;;;;;;5053166;28;20017;-70
2023/07/29 08:53:14;;;;;;;2.45;1.42;;;;;;;;;;5053341;28;20036;-70
2023/07/29 08:55:39;;;;;;;24.02;2.95;;;;;;;;;;5053063;28;20017;-70
2023/07/29 08:58:04;;;;;;;3.07;1.77;;;;;;;;;;5050194;28;20028;-70
2023/07/29 09:00:30;;;;;;;2.83;2.10;;;;;;;;;;5051299;28;20036;-70
2023/07/29 09:02:57;;;;;;;3.13;2.25;;;;;;;;;;5049394;28;20106;-70
2023/07/29 09:05:22;;;;;;;6.03;2.42;;;;;;;;;;5051304;28;20017;-70
2023/07/29 09:07:49;;;;;;;3.53;2.13;;;;;;;;;;5048148;28;20035;-70
2023/07/29 09:10:15;;;;;;;7.32;2.67;;;;;;;;;;5051021;28;20274;-70
2023/07/29 09:12:40;;;;;;;6.55;2.60;;;;;;;;;;5047540;28;20380;-72
2023/07/29 09:15:06;;;;;;;8.77;2.08;;;;;;;;;;5049727;28;20028;-70
2023/07/29 09:17:32;;;;;;;5.78;2.20;;;;;;;;;;5046742;28;20023;-70
2023/07/29 09:19:57;;;;;;;3.58;2.13;;;;;;;;;;5051277;28;20470;-70
2023/07/29 09:22:22;;;;;;;5.33;1.97;;;;;;;;;;5048417;28;20033;-70
2023/07/29 09:24:48;;;;;;;5.20;1.90;;;;;;;;;;5049478;28;20017;-71
2023/07/29 09:27:32;;;;;;;2.47;1.70;;;;;;;;;;5051266;28;20478;-71
2023/07/29 09:29:57;;;;;;;2.13;1.50;;;;;;;;;;5048915;28;20251;-71
2023/07/29 09:32:24;;;;;;;3.40;1.57;;;;;;;;;;5052841;28;20362;-71
2023/07/29 09:34:50;;;;;;;4.00;1.27;;;;;;;;;;5051748;28;20098;-71
2023/07/29 09:37:22;;;;;;;5.30;1.48;;;;;;;;;;5052446;28;20477;-71
2023/07/29 09:39:48;;;;;;;2.85;1.52;;;;;;;;;;5046964;28;20029;-71
2023/07/29 09:42:20;;;;;;;2.08;1.38;;;;;;;;;;5052328;28;20025;-71
2023/07/29 09:44:45;;;;;;;3.60;0.90;;;;;;;;;;5046487;28;20037;-71
2023/07/29 09:47:18;;;;;;;7.80;1.60;;;;;;;;;;5051724;28;20077;-72
2023/07/29 09:49:43;;;;;;;3.50;1.40;;;;;;;;;;5052119;28;20017;-71
2023/07/29 09:52:09;;;;;;;6.00;1.00;;;;;;;;;;5052929;28;20358;-71
2023/07/29 09:54:36;;;;;;;1.35;0.88;;;;;;;;;;5052274;28;20024;-71
2023/07/29 09:57:01;;;;;;;3.42;0.88;;;;;;;;;;5051325;28;20025;-71
2023/07/29 09:59:26;;;;;;;2.30;1.02;;;;;;;;;;5052506;28;20017;-71
2023/07/29 10:01:51;;;;;;;3.30;0.90;;;;;;;;;;5052605;28;20426;-71
2023/07/29 10:04:17;;;;;;;1.67;1.10;;;;;;;;;;5051517;28;20025;-71
2023/07/29 10:06:42;;;;;;;2.00;0.87;;;;;;;;;;5051812;28;20333;-71
2023/07/29 10:09:09;;;;;;;1.38;0.90;;;;;;;;;;5052439;28;20287;-71
2023/07/29 10:11:35;;;;;;;3.08;1.35;;;;;;;;;;5053327;28;20037;-71
2023/07/29 10:14:00;;;;;;;2.38;0.90;;;;;;;;;;5051444;28;20029;-71
2023/07/29 10:16:25;;;;;;;2.55;0.80;;;;;;;;;;5051703;28;20539;-71
2023/07/29 10:18:51;;;;;;;3.85;0.82;;;;;;;;;;5051001;28;20021;-71
2023/07/29 10:21:16;;;;;;;2.92;1.05;;;;;;;;;;5051947;28;20444;-71
2023/07/29 10:23:43;;;;;;;4.28;1.00;;;;;;;;;;5051999;28;20060;-70
2023/07/29 10:26:10;;;;;;;2.10;0.90;;;;;;;;;;5051680;28;20045;-70
2023/07/29 10:28:39;;;;;;;1.88;0.80;;;;;;;;;;5051856;28;20056;-70
2023/07/29 10:31:04;;;;;;;2.25;1.08;;;;;;;;;;5051306;28;20037;-70
2023/07/29 10:33:31;;;;;;;1.40;0.90;;;;;;;;;;5050893;28;20639;-71
2023/07/29 10:35:56;;;;;;;1.90;1.00;;;;;;;;;;5051548;28;20037;-71
2023/07/29 10:38:24;;;;;;;2.50;0.93;;;;;;;;;;5051662;28;20048;-70
2023/07/29 10:40:56;;;;;;;5.18;1.17;;;;;;;;;;5046154;28;20260;-70
2023/07/29 10:43:31;;;;;;;2.08;1.02;;;;;;;;;;5051874;28;20021;-71
2023/07/29 10:45:57;;;;;;;3.38;1.38;;;;;;;;;;5045832;28;20025;-71
2023/07/29 10:48:37;;;;;;;3.25;0.93;;;;;;;;;;5050723;28;20024;-71
2023/07/29 10:51:21;;;;;;;2.83;1.10;;;;;;;;;;5047886;28;20134;-71
2023/07/29 10:53:46;;;;;;;2.75;1.10;;;;;;;;;;5050899;28;20029;-71
2023/07/29 10:56:12;;;;;;;1.83;1.10;;;;;;;;;;5051228;28;20021;-71
2023/07/29 10:58:37;;;;;;;4.95;1.25;;;;;;;;;;5050246;28;20631;-71
2023/07/29 11:01:12;;;;;;;6.27;0.97;;;;;;;;;;5050586;28;20027;-71
2023/07/29 11:03:37;;;;;;;5.90;1.33;;;;;;;;;;5049684;28;20102;-71
2023/07/29 11:06:04;;;;;;;5.23;1.37;;;;;;;;;;5050501;28;20044;-71
2023/07/29 11:08:30;;;;;;;1.88;1.05;;;;;;;;;;5051221;28;20248;-71
2023/07/29 11:10:58;;;;;;;2.88;0.80;;;;;;;;;;5051164;28;20023;-71
2023/07/29 11:13:23;;;;;;;4.10;1.40;;;;;;;;;;5051331;28;20024;-71
2023/07/29 11:15:50;;;;;;;3.40;1.20;;;;;;;;;;5049822;28;20012;-71
2023/07/29 11:18:15;;;;;;;1.67;1.35;;;;;;;;;;5050695;28;20027;-71
2023/07/29 11:20:40;;;;;;;1.20;0.70;;;;;;;;;;5050856;28;20107;-71
2023/07/29 11:23:05;;;;;;;1.53;0.80;;;;;;;;;;5050171;28;20099;-71
2023/07/29 11:25:33;;;;;;;0.68;0.50;;;;;;;;;;5050513;28;20047;-71
2023/07/29 11:27:59;;;;;;;6.32;1.90;;;;;;;;;;5050496;28;20477;-71
2023/07/29 11:30:29;;;;;;;3.00;1.15;;;;;;;;;;5049656;28;20055;-71
2023/07/29 11:32:55;;;;;;;9.20;1.35;;;;;;;;;;5045716;28;20448;-71
2023/07/29 11:35:20;;;;;;;3.92;1.35;;;;;;;;;;5050568;28;20020;-71
2023/07/29 11:37:46;;;;;;;4.87;1.73;;;;;;;;;;5050312;28;20409;-70
2023/07/29 11:40:16;;;;;;;4.40;1.33;;;;;;;;;;5050003;28;20282;-70
2023/07/29 11:42:41;;;;;;;0.73;0.60;;;;;;;;;;5050409;28;20500;-70
2023/07/29 11:45:07;;;;;;;1.08;0.80;;;;;;;;;;5049040;28;20021;-70
2023/07/29 11:47:38;;;;;;;2.13;0.98;;;;;;;;;;5050009;28;20017;-70
2023/07/29 11:50:05;;;;;;;6.07;1.60;;;;;;;;;;5050664;28;20013;-70
2023/07/29 11:52:31;;;;;;;2.97;1.30;;;;;;;;;;5049129;28;20017;-70
2023/07/29 11:54:56;;;;;;;2.75;1.70;;;;;;;;;;5050318;28;20045;-71
2023/07/29 11:57:22;;;;;;;3.97;1.23;;;;;;;;;;5049419;28;20511;-71
2023/07/29 11:59:48;;;;;;;3.38;0.98;;;;;;;;;;5049346;28;20075;-70
2023/07/29 12:02:14;;;;;;;1.33;0.57;;;;;;;;;;5050197;28;20092;-70
2023/07/29 12:04:41;;;;;;;2.08;0.77;;;;;;;;;;5050203;28;20262;-70
2023/07/29 12:07:06;;;;;;;3.78;1.00;;;;;;;;;;5049905;28;20020;-70
2023/07/29 12:09:31;;;;;;;2.20;1.08;;;;;;;;;;5049716;28;20575;-70
2023/07/29 12:11:57;;;;;;;3.17;1.38;;;;;;;;;;5050152;28;20009;-70
2023/07/29 12:14:25;;;;;;;3.05;1.27;;;;;;;;;;5047941;28;20383;-70
2023/07/29 12:16:51;;;;;;;2.78;1.13;;;;;;;;;;5049389;28;20044;-70
2023/07/29 12:19:17;;;;;;;2.60;1.38;;;;;;;;;;5049998;28;20033;-70
2023/07/29 12:21:43;;;;;;;5.93;1.77;;;;;;;;;;5049898;28;20039;-71
2023/07/29 12:24:08;;;;;;;1.58;0.57;;;;;;;;;;5050065;28;20017;-71
2023/07/29 12:26:35;;;;;;;3.53;1.40;;;;;;;;;;5049213;28;20092;-71
2023/07/29 12:29:10;;;;;;;3.75;1.48;;;;;;;;;;5048947;28;20021;-71
2023/07/29 12:31:37;;;;;;;1.88;1.08;;;;;;;;;;5049369;28;20373;-72
2023/07/29 12:34:03;;;;;;;1.80;1.10;;;;;;;;;;5050102;28;20021;-72
2023/07/29 12:36:44;;;;;;;2.95;1.30;;;;;;;;;;5049860;28;20017;-72
2023/07/29 12:39:29;;;;;;;2.38;1.10;;;;;;;;;;5047300;28;20021;-71
2023/07/29 12:41:55;;;;;;;4.25;1.30;;;;;;;;;;5049186;28;20039;-72
2023/07/29 12:44:22;;;;;;;3.72;2.33;;;;;;;;;;5049933;28;20021;-72
2023/07/29 12:46:47;;;;;;;1.33;0.88;;;;;;;;;;5049044;28;20048;-71
2023/07/29 12:49:12;;;;;;;1.97;1.20;;;;;;;;;;5049272;28;20378;-71
2023/07/29 12:51:38;;;;;;;2.10;1.20;;;;;;;;;;5049535;28;20017;-72
2023/07/29 12:54:04;;;;;;;3.13;1.23;;;;;;;;;;5048218;28;20055;-72
2023/07/29 12:56:30;;;;;;;3.53;1.10;;;;;;;;;;5047903;28;20025;-72
2023/07/29 12:58:56;;;;;;;2.33;1.17;;;;;;;;;;5047837;28;20025;-72
2023/07/29 13:01:21;;;;;;;1.50;1.00;;;;;;;;;;5049500;28;20048;-71
2023/07/29 13:03:47;;;;;;;1.67;1.10;;;;;;;;;;5049448;28;20279;-71
2023/07/29 13:06:12;;;;;;;1.65;1.05;;;;;;;;;;5048573;28;20679;-72
2023/07/29 13:08:37;;;;;;;1.50;0.73;;;;;;;;;;5049388;28;20093;-72
2023/07/29 13:11:03;;;;;;;4.47;1.40;;;;;;;;;;5048072;28;20017;-72
2023/07/29 13:13:28;;;;;;;2.67;1.20;;;;;;;;;;5049340;28;20017;-72
2023/07/29 13:15:53;;;;;;;1.25;0.80;;;;;;;;;;5050125;28;20102;-72
2023/07/29 13:18:18;;;;;;;1.77;1.20;;;;;;;;;;5049485;28;20126;-72
2023/07/29 13:20:43;;;;;;;2.17;1.40;;;;;;;;;;5049879;28;20410;-72
2023/07/29 13:23:09;;;;;;;1.93;1.30;;;;;;;;;;5052338;28;20074;-72
2023/07/29 13:25:34;;;;;;;5.30;1.27;;;;;;;;;;5051987;28;20016;-72
2023/07/29 13:27:59;;;;;;;4.30;1.50;;;;;;;;;;5052640;28;20112;-72
2023/07/29 13:30:24;;;;;;;1.92;1.17;;;;;;;;;;5053184;28;20009;-72
2023/07/29 13:32:49;;;;;;;2.33;1.37;;;;;;;;;;5052935;28;20371;-72
2023/07/29 13:35:14;;;;;;;1.13;0.80;;;;;;;;;;5053001;28;20013;-72
2023/07/29 13:37:40;;;;;;;2.43;1.50;;;;;;;;;;5047906;28;20060;-72
2023/07/29 13:40:05;;;;;;;2.67;1.10;;;;;;;;;;5050035;28;20738;-72
2023/07/29 13:42:30;;;;;;;1.83;1.05;;;;;;;;;;5050241;28;20079;-72
2023/07/29 13:44:56;;;;;;;3.40;1.70;;;;;;;;;;5050164;28;20031;-72
2023/07/29 13:47:21;;;;;;;1.97;1.27;;;;;;;;;;5049649;28;20025;-72
2023/07/29 13:49:46;;;;;;;2.43;0.80;;;;;;;;;;5049488;28;20101;-72
2023/07/29 13:52:12;;;;;;;2.10;1.00;;;;;;;;;;5050903;28;20264;-72
2023/07/29 13:54:38;;;;;;;3.10;1.60;;;;;;;;;;5047975;28;20359;-72
2023/07/29 13:57:04;;;;;;;2.05;0.93;;;;;;;;;;5046050;28;20028;-72
2023/07/29 13:59:29;;;;;;;3.28;1.30;;;;;;;;;;5048393;28;20016;-72
2023/07/29 14:01:54;;;;;;;2.70;1.50;;;;;;;;;;5049996;28;20063;-72
2023/07/29 14:04:19;;;;;;;3.77;2.03;;;;;;;;;;5051985;28;20517;-72
2023/07/29 14:06:45;;;;;;;3.17;1.60;;;;;;;;;;5051850;28;20067;-72
2023/07/29 14:09:10;;;;;;;2.72;1.50;;;;;;;;;;5051604;28;20104;-72
2023/07/29 14:11:35;;;;;;;4.40;1.73;;;;;;;;;;5052321;28;20024;-72
2023/07/29 14:14:00;;;;;;;5.47;1.47;;;;;;;;;;5049714;28;20370;-72
2023/07/29 14:16:26;;;;;;;4.10;1.70;;;;;;;;;;5047649;28;20021;-72
2023/07/29 14:18:51;;;;;;;6.67;1.67;;;;;;;;;;5051029;28;20035;-72
2023/07/29 14:21:16;;;;;;;2.90;1.60;;;;;;;;;;5034101;28;20122;-72
2023/07/29 14:23:41;;;;;;;3.83;2.00;;;;;;;;;;5052238;28;20728;-73
2023/07/29 14:26:09;;;;;;;6.03;2.03;;;;;;;;;;5050051;28;20357;-72
2023/07/29 14:28:34;;;;;;;2.78;1.63;;;;;;;;;;5050686;28;20263;-72
2023/07/29 14:30:59;;;;;;;5.72;2.10;;;;;;;;;;5051226;28;20029;-72
2023/07/29 14:33:26;;;;;;;2.30;1.50;;;;;;;;;;5048532;28;20112;-72